createdAt,value
2022-08-31T06:01:16.739Z,2.391304347826087
2022-08-31T06:12:22.711Z,1.7625418060200668
2022-08-31T06:22:07.032Z,1.2976588628762542
2022-08-31T06:29:32.118Z,1.2441471571906355
2022-08-31T06:37:57.937Z,0.9698996655518395
2022-08-31T06:47:29.863Z,1.3846153846153846
2022-08-31T06:58:53.814Z,0.9163879598662207
2022-08-31T07:09:40.285Z,0.5083612040133779
2022-08-31T07:17:44.516Z,0.5217391304347826
2022-08-31T07:24:22.832Z,0.39464882943143814
2022-08-31T07:30:44.226Z,0.14381270903010032
2022-08-31T07:37:05.832Z,0.3377926421404682
2022-08-31T07:43:27.338Z,0.2140468227424749
2022-08-31T07:49:49.000Z,0.29431438127090304
2022-08-31T08:07:33.180Z,0.22073578595317725
2022-08-31T08:13:55.953Z,0.4682274247491639
2022-08-31T08:20:17.625Z,0.09364548494983277
2022-08-31T08:27:04.170Z,0.07023411371237458
2022-08-31T08:33:25.952Z,0.020066889632107024
2022-08-31T08:39:47.830Z,0.16722408026755853
2022-08-31T08:46:31.277Z,0.05351170568561873
2022-08-31T08:58:17.295Z,0.010033444816053512
2022-08-31T09:04:40.349Z,0.020066889632107024
2022-08-31T09:11:02.567Z,0.0
2022-08-31T09:21:46.554Z,0.04013377926421405
2022-08-31T09:28:16.164Z,0.07023411371237458
2022-08-31T09:34:37.571Z,0.016722408026755852
2022-08-31T09:40:59.567Z,0.023411371237458192
2022-08-31T09:57:31.543Z,0.023411371237458192
2022-08-31T10:03:53.932Z,0.023411371237458192
2022-08-31T10:10:18.750Z,0.006688963210702341
2022-08-31T10:16:51.550Z,0.2408026755852843
2022-08-31T10:23:55.850Z,0.04013377926421405
2022-08-31T10:38:40.891Z,0.0
2022-08-31T10:45:02.556Z,0.033444816053511704
2022-08-31T10:51:24.078Z,0.030100334448160536
2022-08-31T10:57:45.044Z,0.0
2022-08-31T11:04:06.593Z,0.030100334448160536
2022-08-31T11:10:27.250Z,0.026755852842809364
2022-08-31T11:16:49.362Z,0.11705685618729098
2022-08-31T11:25:41.417Z,0.023411371237458192
2022-08-31T11:32:02.585Z,0.013377926421404682
2022-08-31T11:40:43.296Z,0.13043478260869565
2022-08-31T11:47:05.915Z,0.016722408026755852
2022-08-31T11:53:26.699Z,0.056856187290969896
2022-08-31T11:59:47.931Z,0.0903010033444816
2022-08-31T12:06:08.646Z,0.020066889632107024
2022-08-31T12:14:43.883Z,0.3745819397993311
2022-08-31T12:21:05.799Z,0.046822742474916385
2022-08-31T12:32:26.167Z,0.04013377926421405
2022-08-31T12:39:00.911Z,0.08695652173913043
2022-08-31T12:45:22.365Z,0.06020066889632107
2022-08-31T12:51:45.992Z,0.046822742474916385
2022-08-31T12:58:07.432Z,0.030100334448160536
2022-08-31T13:08:02.771Z,0.07692307692307693
2022-08-31T13:14:24.157Z,0.09698996655518395
2022-08-31T13:20:45.045Z,0.04013377926421405
2022-08-31T13:27:14.139Z,0.05016722408026756
2022-08-31T13:33:35.239Z,0.06688963210702341
2022-08-31T13:39:56.038Z,0.07357859531772576
2022-08-31T13:46:16.985Z,0.030100334448160536
2022-08-31T13:52:38.398Z,0.0903010033444816
2022-08-31T13:58:59.761Z,0.14381270903010032
2022-08-31T14:05:21.411Z,0.07023411371237458
2022-08-31T14:11:42.591Z,0.05351170568561873
2022-08-31T14:18:27.058Z,0.05016722408026756
2022-08-31T14:24:59.836Z,0.033444816053511704
2022-08-31T14:31:21.835Z,0.07023411371237458
2022-08-31T14:37:45.021Z,0.06020066889632107
2022-08-31T14:44:07.450Z,0.16387959866220736
2022-08-31T14:50:30.686Z,0.03678929765886288
2022-08-31T15:02:26.409Z,0.10367892976588629
2022-08-31T15:08:47.955Z,0.0903010033444816
2022-08-31T15:15:09.970Z,0.0802675585284281
2022-08-31T15:21:31.629Z,0.11705685618729098
2022-08-31T15:28:12.186Z,0.046822742474916385
2022-08-31T15:34:33.325Z,0.04013377926421405
2022-08-31T15:40:54.722Z,0.3377926421404682
2022-08-31T15:51:23.298Z,0.0903010033444816
2022-08-31T15:57:44.331Z,0.39464882943143814
2022-08-31T16:04:05.381Z,0.35451505016722407
2022-08-31T16:14:33.614Z,0.2140468227424749
2022-08-31T16:20:55.759Z,0.431438127090301
2022-08-31T16:27:22.762Z,0.4180602006688963
2022-08-31T16:33:43.484Z,0.41471571906354515
2022-08-31T16:40:04.802Z,0.11036789297658862
2022-08-31T16:46:40.203Z,0.31438127090301005
2022-08-31T16:53:04.297Z,0.43478260869565216
2022-08-31T16:59:26.398Z,0.35451505016722407
2022-08-31T17:05:48.601Z,0.29431438127090304
2022-08-31T17:12:09.720Z,0.14381270903010032
2022-08-31T17:18:31.016Z,0.2976588628762542
2022-08-31T17:24:55.832Z,0.2909698996655518
2022-08-31T17:37:13.309Z,1.1438127090301002
2022-08-31T17:43:33.946Z,0.38461538461538464
2022-08-31T17:49:55.157Z,0.12040133779264214
2022-08-31T17:56:16.343Z,0.4214046822742475
2022-08-31T18:02:38.386Z,0.6187290969899666
2022-08-31T18:09:03.163Z,0.8662207357859532
2022-08-31T18:16:29.341Z,1.0468227424749164
2022-08-31T18:23:04.704Z,0.17391304347826086
2022-08-31T18:31:05.312Z,0.6956521739130435
2022-08-31T18:37:28.331Z,1.37123745819398
2022-08-31T18:43:51.187Z,1.1505016722408026
2022-08-31T18:50:13.238Z,1.4414715719063544
2022-08-31T18:56:34.924Z,2.4949832775919734
2022-08-31T19:06:08.041Z,2.68561872909699
2022-08-31T19:18:14.641Z,2.9331103678929766
2022-08-31T19:31:50.084Z,1.193979933110368
2022-08-31T19:38:14.392Z,1.0167224080267558
2022-08-31T19:45:22.457Z,0.7658862876254181
2022-08-31T19:54:45.695Z,1.0
2022-08-31T20:01:28.468Z,1.0100334448160535
2022-08-31T20:08:03.964Z,0.842809364548495
2022-08-31T20:14:27.170Z,0.5418060200668896
2022-08-31T20:20:49.729Z,0.8929765886287625
2022-08-31T20:27:22.835Z,0.6588628762541806
2022-08-31T20:39:21.816Z,0.7190635451505016
2022-08-31T20:49:37.943Z,1.0869565217391304
2022-08-31T20:59:32.782Z,0.959866220735786
2022-08-31T21:05:53.706Z,0.7023411371237458
2022-08-31T21:13:33.141Z,0.8494983277591973
2022-08-31T21:19:54.512Z,0.5551839464882943
2022-08-31T21:28:38.771Z,1.1103678929765886
2022-08-31T21:35:00.639Z,0.6220735785953178
2022-08-31T21:41:21.509Z,0.6889632107023411
2022-08-31T21:47:42.674Z,0.6755852842809364
2022-08-31T21:54:03.889Z,0.862876254180602
2022-08-31T22:00:25.012Z,0.4280936454849498
2022-08-31T22:06:46.201Z,0.903010033444816
2022-08-31T22:13:46.745Z,0.979933110367893
2022-08-31T22:20:08.515Z,1.2274247491638797
2022-08-31T22:26:36.878Z,0.9698996655518395
2022-08-31T22:34:07.621Z,1.9866220735785953
2022-08-31T22:40:28.908Z,1.0668896321070234
2022-08-31T22:46:50.252Z,1.3846153846153846
2022-08-31T22:53:12.400Z,1.040133779264214
2022-08-31T22:59:34.392Z,1.0635451505016722
2022-08-31T23:05:54.864Z,1.1137123745819397
2022-08-31T23:16:14.473Z,1.1036789297658862
2022-08-31T23:22:35.780Z,1.394648829431438
2022-08-31T23:29:06.402Z,1.7224080267558528
2022-08-31T23:35:27.479Z,1.2508361204013378
2022-08-31T23:41:48.159Z,1.5016722408026757
2022-08-31T23:48:31.056Z,1.3010033444816054
2022-08-31T23:54:52.483Z,1.040133779264214
